sensor_id;sensor_type;location;lat;lon;timestamp;pressure;altitude;pressure_sealevel;temperature;humidity
77207;BME280;66190;50.708;7.906;2023-03-30T00:00:04;95790.88;;;11.35;68.69
77207;BME280;66190;50.708;7.906;2023-03-30T00:02:49;95789.59;;;11.37;68.40
77207;BME280;66190;50.708;7.906;2023-03-30T00:05:18;95797.47;;;11.39;68.49
77207;BME280;66190;50.708;7.906;2023-03-30T00:07:44;95793.72;;;11.40;68.04
77207;BME280;66190;50.708;7.906;2023-03-30T00:10:12;95787.06;;;11.42;68.24
77207;BME280;66190;50.708;7.906;2023-03-30T00:12:39;95786.00;;;11.43;68.15
77207;BME280;66190;50.708;7.906;2023-03-30T00:15:07;95774.47;;;11.36;68.72
77207;BME280;66190;50.708;7.906;2023-03-30T00:17:34;95778.00;;;11.37;68.67
77207;BME280;66190;50.708;7.906;2023-03-30T00:19:59;95775.47;;;11.42;68.32
77207;BME280;66190;50.708;7.906;2023-03-30T00:22:41;95775.91;;;11.39;68.43
77207;BME280;66190;50.708;7.906;2023-03-30T00:25:09;95784.22;;;11.37;68.36
77207;BME280;66190;50.708;7.906;2023-03-30T00:27:35;95781.75;;;11.36;68.62
77207;BME280;66190;50.708;7.906;2023-03-30T00:30:02;95781.53;;;11.37;68.18
77207;BME280;66190;50.708;7.906;2023-03-30T00:32:28;95782.78;;;11.35;68.28
77207;BME280;66190;50.708;7.906;2023-03-30T00:34:53;95789.00;;;11.35;67.96
77207;BME280;66190;50.708;7.906;2023-03-30T00:37:19;95784.22;;;11.37;68.08
77207;BME280;66190;50.708;7.906;2023-03-30T00:39:44;95780.31;;;11.33;68.06
77207;BME280;66190;50.708;7.906;2023-03-30T00:42:15;95777.16;;;11.36;67.62
77207;BME280;66190;50.708;7.906;2023-03-30T00:45:08;95775.91;;;11.39;67.54
77207;BME280;66190;50.708;7.906;2023-03-30T00:47:35;95766.84;;;11.33;67.95
77207;BME280;66190;50.708;7.906;2023-03-30T00:50:03;95768.66;;;11.39;67.36
77207;BME280;66190;50.708;7.906;2023-03-30T00:52:31;95755.25;;;11.33;68.02
77207;BME280;66190;50.708;7.906;2023-03-30T00:54:57;95753.84;;;11.30;68.00
77207;BME280;66190;50.708;7.906;2023-03-30T00:57:25;95754.88;;;11.29;67.94
77207;BME280;66190;50.708;7.906;2023-03-30T00:59:53;95742.00;;;11.31;67.76
77207;BME280;66190;50.708;7.906;2023-03-30T01:02:19;95745.53;;;11.32;67.51
77207;BME280;66190;50.708;7.906;2023-03-30T01:04:46;95747.13;;;11.39;66.69
77207;BME280;66190;50.708;7.906;2023-03-30T01:07:13;95749.59;;;11.41;66.73
77207;BME280;66190;50.708;7.906;2023-03-30T01:09:41;95737.22;;;11.33;67.45
77207;BME280;66190;50.708;7.906;2023-03-30T01:12:07;95750.09;;;11.50;65.82
77207;BME280;66190;50.708;7.906;2023-03-30T01:14:33;95751.13;;;11.48;66.06
77207;BME280;66190;50.708;7.906;2023-03-30T01:17:09;95732.00;;;11.57;65.68
77207;BME280;66190;50.708;7.906;2023-03-30T01:38:30;95722.16;;;11.80;65.49
77207;BME280;66190;50.708;7.906;2023-03-30T01:41:20;95725.47;;;11.82;65.54
77207;BME280;66190;50.708;7.906;2023-03-30T01:43:59;95727.47;;;11.87;65.67
77207;BME280;66190;50.708;7.906;2023-03-30T01:46:29;95733.16;;;11.97;65.52
77207;BME280;66190;50.708;7.906;2023-03-30T01:49:28;95751.88;;;11.92;65.60
77207;BME280;66190;50.708;7.906;2023-03-30T01:52:01;95770.28;;;11.95;65.93
77207;BME280;66190;50.708;7.906;2023-03-30T01:54:31;95770.53;;;11.93;66.60
77207;BME280;66190;50.708;7.906;2023-03-30T01:57:14;95774.69;;;12.07;67.26
77207;BME280;66190;50.708;7.906;2023-03-30T01:59:54;95789.56;;;12.10;67.78
77207;BME280;66190;50.708;7.906;2023-03-30T02:02:21;95769.13;;;12.02;69.17
77207;BME280;66190;50.708;7.906;2023-03-30T02:04:50;95758.03;;;11.81;72.24
77207;BME280;66190;50.708;7.906;2023-03-30T02:07:21;95777.41;;;11.71;72.82
77207;BME280;66190;50.708;7.906;2023-03-30T02:09:51;95747.03;;;11.64;74.05
77207;BME280;66190;50.708;7.906;2023-03-30T02:12:18;95762.50;;;11.51;75.30
77207;BME280;66190;50.708;7.906;2023-03-30T02:14:46;95753.91;;;11.42;76.04
77207;BME280;66190;50.708;7.906;2023-03-30T02:17:16;95767.09;;;11.32;77.26
77207;BME280;66190;50.708;7.906;2023-03-30T02:19:44;95763.34;;;11.33;75.95
77207;BME280;66190;50.708;7.906;2023-03-30T02:22:14;95759.84;;;11.32;76.66
77207;BME280;66190;50.708;7.906;2023-03-30T02:24:41;95747.25;;;11.26;77.31
77207;BME280;66190;50.708;7.906;2023-03-30T02:27:08;95729.75;;;11.17;77.94
77207;BME280;66190;50.708;7.906;2023-03-30T02:29:36;95745.28;;;11.15;78.45
77207;BME280;66190;50.708;7.906;2023-03-30T02:32:03;95744.13;;;11.11;78.38
77207;BME280;66190;50.708;7.906;2023-03-30T02:37:45;95721.00;;;11.04;79.13
77207;BME280;66190;50.708;7.906;2023-03-30T02:40:31;95711.88;;;11.05;78.43
77207;BME280;66190;50.708;7.906;2023-03-30T02:53:45;95704.47;;;11.18;76.59
77207;BME280;66190;50.708;7.906;2023-03-30T02:58:55;95722.38;;;11.31;76.37
77207;BME280;66190;50.708;7.906;2023-03-30T03:03:50;95682.69;;;11.38;78.53
77207;BME280;66190;50.708;7.906;2023-03-30T03:06:17;95678.34;;;11.37;78.75
77207;BME280;66190;50.708;7.906;2023-03-30T03:08:44;95670.28;;;11.37;78.85
77207;BME280;66190;50.708;7.906;2023-03-30T03:11:13;95658.91;;;11.35;79.15
77207;BME280;66190;50.708;7.906;2023-03-30T03:13:39;95648.97;;;11.35;79.03
77207;BME280;66190;50.708;7.906;2023-03-30T03:16:07;95626.72;;;11.40;78.20
77207;BME280;66190;50.708;7.906;2023-03-30T03:18:35;95631.75;;;11.36;78.67
77207;BME280;66190;50.708;7.906;2023-03-30T03:21:04;95637.81;;;11.32;79.04
77207;BME280;66190;50.708;7.906;2023-03-30T03:23:30;95642.09;;;11.39;78.13
77207;BME280;66190;50.708;7.906;2023-03-30T03:25:55;95641.63;;;11.42;77.64
77207;BME280;66190;50.708;7.906;2023-03-30T03:28:21;95641.84;;;11.41;78.15
77207;BME280;66190;50.708;7.906;2023-03-30T03:30:50;95622.84;;;11.36;78.38
77207;BME280;66190;50.708;7.906;2023-03-30T03:33:15;95618.75;;;11.33;79.06
77207;BME280;66190;50.708;7.906;2023-03-30T03:35:40;95629.38;;;11.28;78.60
77207;BME280;66190;50.708;7.906;2023-03-30T03:38:10;95625.94;;;11.21;79.58
77207;BME280;66190;50.708;7.906;2023-03-30T03:40:36;95613.75;;;11.19;79.36
77207;BME280;66190;50.708;7.906;2023-03-30T03:43:01;95613.75;;;11.19;79.56
77207;BME280;66190;50.708;7.906;2023-03-30T03:45:26;95612.84;;;11.25;79.32
77207;BME280;66190;50.708;7.906;2023-03-30T03:47:52;95613.31;;;11.22;80.06
77207;BME280;66190;50.708;7.906;2023-03-30T03:50:17;95608.66;;;11.29;79.97
77207;BME280;66190;50.708;7.906;2023-03-30T03:52:43;95600.59;;;11.29;80.60
77207;BME280;66190;50.708;7.906;2023-03-30T03:55:09;95597.06;;;11.28;81.04
77207;BME280;66190;50.708;7.906;2023-03-30T03:57:34;95602.81;;;11.32;81.06
77207;BME280;66190;50.708;7.906;2023-03-30T04:00:02;95606.56;;;11.31;81.03
77207;BME280;66190;50.708;7.906;2023-03-30T04:02:27;95586.19;;;11.35;81.28
77207;BME280;66190;50.708;7.906;2023-03-30T04:04:53;95597.44;;;11.32;81.41
77207;BME280;66190;50.708;7.906;2023-03-30T04:07:18;95592.88;;;11.32;81.35
77207;BME280;66190;50.708;7.906;2023-03-30T04:09:44;95585.16;;;11.36;81.36
77207;BME280;66190;50.708;7.906;2023-03-30T04:12:10;95585.72;;;11.38;81.10
77207;BME280;66190;50.708;7.906;2023-03-30T04:14:35;95586.09;;;11.41;80.98
77207;BME280;66190;50.708;7.906;2023-03-30T04:17:00;95590.69;;;11.41;81.10
77207;BME280;66190;50.708;7.906;2023-03-30T04:19:26;95567.41;;;11.47;80.95
77207;BME280;66190;50.708;7.906;2023-03-30T04:21:52;95576.16;;;11.42;81.39
77207;BME280;66190;50.708;7.906;2023-03-30T04:24:20;95563.28;;;11.44;80.92
77207;BME280;66190;50.708;7.906;2023-03-30T04:26:47;95565.28;;;11.48;80.60
77207;BME280;66190;50.708;7.906;2023-03-30T04:29:16;95568.44;;;11.45;80.86
77207;BME280;66190;50.708;7.906;2023-03-30T04:31:42;95565.75;;;11.45;80.93
77207;BME280;66190;50.708;7.906;2023-03-30T04:34:13;95552.38;;;11.39;81.10
77207;BME280;66190;50.708;7.906;2023-03-30T04:36:39;95567.03;;;11.43;80.30
77207;BME280;66190;50.708;7.906;2023-03-30T04:39:10;95555.91;;;11.51;79.99
77207;BME280;66190;50.708;7.906;2023-03-30T04:41:36;95555.78;;;11.46;80.12
77207;BME280;66190;50.708;7.906;2023-03-30T04:44:07;95561.19;;;11.46;80.06
77207;BME280;66190;50.708;7.906;2023-03-30T04:46:34;95559.31;;;11.47;79.81
77207;BME280;66190;50.708;7.906;2023-03-30T04:49:00;95544.19;;;11.45;79.85
77207;BME280;66190;50.708;7.906;2023-03-30T04:51:25;95554.13;;;11.45;80.02
77207;BME280;66190;50.708;7.906;2023-03-30T04:53:51;95553.78;;;11.41;80.09
77207;BME280;66190;50.708;7.906;2023-03-30T04:56:16;95544.66;;;11.42;80.04
77207;BME280;66190;50.708;7.906;2023-03-30T04:58:42;95549.09;;;11.37;80.60
77207;BME280;66190;50.708;7.906;2023-03-30T05:01:07;95528.25;;;11.44;79.63
77207;BME280;66190;50.708;7.906;2023-03-30T05:03:33;95542.44;;;11.39;80.16
77207;BME280;66190;50.708;7.906;2023-03-30T05:05:58;95539.03;;;11.44;79.81
77207;BME280;66190;50.708;7.906;2023-03-30T05:08:24;95543.22;;;11.40;80.38
77207;BME280;66190;50.708;7.906;2023-03-30T05:10:49;95546.53;;;11.42;80.10
77207;BME280;66190;50.708;7.906;2023-03-30T05:13:15;95547.59;;;11.41;80.15
77207;BME280;66190;50.708;7.906;2023-03-30T05:15:40;95550.88;;;11.43;80.05
77207;BME280;66190;50.708;7.906;2023-03-30T05:18:05;95549.44;;;11.40;80.42
77207;BME280;66190;50.708;7.906;2023-03-30T05:20:31;95551.91;;;11.42;80.21
77207;BME280;66190;50.708;7.906;2023-03-30T05:22:57;95565.38;;;11.42;80.29
77207;BME280;66190;50.708;7.906;2023-03-30T05:25:22;95554.97;;;11.45;80.07
77207;BME280;66190;50.708;7.906;2023-03-30T05:27:47;95546.53;;;11.42;80.23
77207;BME280;66190;50.708;7.906;2023-03-30T05:30:13;95553.34;;;11.44;79.81
77207;BME280;66190;50.708;7.906;2023-03-30T05:32:39;95539.63;;;11.46;80.00
77207;BME280;66190;50.708;7.906;2023-03-30T05:35:04;95533.41;;;11.45;79.78
77207;BME280;66190;50.708;7.906;2023-03-30T05:37:30;95537.41;;;11.43;79.97
77207;BME280;66190;50.708;7.906;2023-03-30T05:39:55;95539.16;;;11.49;79.19
77207;BME280;66190;50.708;7.906;2023-03-30T05:42:21;95537.78;;;11.47;79.69
77207;BME280;66190;50.708;7.906;2023-03-30T05:44:46;95553.09;;;11.46;79.78
77207;BME280;66190;50.708;7.906;2023-03-30T05:47:12;95552.88;;;11.48;79.59
77207;BME280;66190;50.708;7.906;2023-03-30T05:49:37;95550.31;;;11.53;79.31
77207;BME280;66190;50.708;7.906;2023-03-30T05:52:03;95557.00;;;11.50;79.49
77207;BME280;66190;50.708;7.906;2023-03-30T05:54:28;95552.16;;;11.52;79.13
77207;BME280;66190;50.708;7.906;2023-03-30T05:56:53;95562.94;;;11.52;79.24
77207;BME280;66190;50.708;7.906;2023-03-30T05:59:19;95575.84;;;11.50;79.43
77207;BME280;66190;50.708;7.906;2023-03-30T06:01:46;95571.50;;;11.49;79.41
77207;BME280;66190;50.708;7.906;2023-03-30T06:04:12;95574.41;;;11.48;79.50
77207;BME280;66190;50.708;7.906;2023-03-30T06:06:37;95583.91;;;11.50;79.32
77207;BME280;66190;50.708;7.906;2023-03-30T06:09:03;95591.78;;;11.52;79.19
77207;BME280;66190;50.708;7.906;2023-03-30T06:11:30;95586.16;;;11.53;78.98
77207;BME280;66190;50.708;7.906;2023-03-30T06:13:56;95579.47;;;11.56;78.77
77207;BME280;66190;50.708;7.906;2023-03-30T06:16:22;95577.59;;;11.56;78.47
77207;BME280;66190;50.708;7.906;2023-03-30T06:18:48;95573.09;;;11.68;77.21
77207;BME280;66190;50.708;7.906;2023-03-30T06:21:13;95568.31;;;11.70;77.09
77207;BME280;66190;50.708;7.906;2023-03-30T06:23:39;95562.44;;;11.73;76.96
77207;BME280;66190;50.708;7.906;2023-03-30T06:26:05;95567.25;;;11.71;77.18
77207;BME280;66190;50.708;7.906;2023-03-30T06:28:32;95563.50;;;11.72;77.25
77207;BME280;66190;50.708;7.906;2023-03-30T06:30:58;95571.22;;;11.69;77.41
77207;BME280;66190;50.708;7.906;2023-03-30T06:33:25;95567.47;;;11.70;77.55
77207;BME280;66190;50.708;7.906;2023-03-30T06:35:52;95558.00;;;11.67;77.58
77207;BME280;66190;50.708;7.906;2023-03-30T06:38:20;95568.06;;;11.72;77.17
77207;BME280;66190;50.708;7.906;2023-03-30T06:40:46;95559.50;;;11.75;76.93
77207;BME280;66190;50.708;7.906;2023-03-30T06:43:22;95574.06;;;11.74;77.17
77207;BME280;66190;50.708;7.906;2023-03-30T06:45:49;95572.19;;;11.74;77.42
77207;BME280;66190;50.708;7.906;2023-03-30T06:48:15;95589.38;;;11.73;77.63
77207;BME280;66190;50.708;7.906;2023-03-30T06:50:40;95583.88;;;11.68;77.78
77207;BME280;66190;50.708;7.906;2023-03-30T06:53:06;95584.69;;;11.69;77.83
77207;BME280;66190;50.708;7.906;2023-03-30T06:55:31;95593.03;;;11.67;78.45
77207;BME280;66190;50.708;7.906;2023-03-30T06:57:57;95586.22;;;11.65;78.62
77207;BME280;66190;50.708;7.906;2023-03-30T07:00:23;95600.50;;;11.65;78.84
77207;BME280;66190;50.708;7.906;2023-03-30T07:02:48;95590.97;;;11.63;79.14
77207;BME280;66190;50.708;7.906;2023-03-30T07:05:13;95601.97;;;11.61;78.94
77207;BME280;66190;50.708;7.906;2023-03-30T07:07:40;95595.75;;;11.61;79.30
77207;BME280;66190;50.708;7.906;2023-03-30T07:10:06;95612.75;;;11.61;79.29
77207;BME280;66190;50.708;7.906;2023-03-30T07:12:35;95596.00;;;11.59;79.42
77207;BME280;66190;50.708;7.906;2023-03-30T07:15:01;95612.38;;;11.58;79.86
77207;BME280;66190;50.708;7.906;2023-03-30T07:17:27;95603.50;;;11.57;79.89
77207;BME280;66190;50.708;7.906;2023-03-30T07:19:52;95609.09;;;11.56;80.19
77207;BME280;66190;50.708;7.906;2023-03-30T07:22:18;95603.34;;;11.52;80.40
77207;BME280;66190;50.708;7.906;2023-03-30T07:24:43;95594.47;;;11.52;80.45
77207;BME280;66190;50.708;7.906;2023-03-30T07:27:09;95602.97;;;11.48;80.92
77207;BME280;66190;50.708;7.906;2023-03-30T07:29:34;95600.53;;;11.47;81.20
77207;BME280;66190;50.708;7.906;2023-03-30T07:32:01;95592.91;;;11.44;81.27
77207;BME280;66190;50.708;7.906;2023-03-30T07:34:27;95601.59;;;11.46;81.55
77207;BME280;66190;50.708;7.906;2023-03-30T07:36:52;95603.22;;;11.47;81.27
77207;BME280;66190;50.708;7.906;2023-03-30T07:39:18;95594.34;;;11.47;81.12
77207;BME280;66190;50.708;7.906;2023-03-30T07:41:44;95586.63;;;11.50;81.67
77207;BME280;66190;50.708;7.906;2023-03-30T07:44:09;95586.75;;;11.55;81.22
77207;BME280;66190;50.708;7.906;2023-03-30T07:46:35;95596.00;;;11.59;81.26
77207;BME280;66190;50.708;7.906;2023-03-30T07:49:00;95593.91;;;11.61;81.24
77207;BME280;66190;50.708;7.906;2023-03-30T07:51:26;95600.72;;;11.64;81.21
77207;BME280;66190;50.708;7.906;2023-03-30T07:53:51;95591.72;;;11.70;81.25
77207;BME280;66190;50.708;7.906;2023-03-30T07:56:16;95605.44;;;11.80;81.19
77207;BME280;66190;50.708;7.906;2023-03-30T07:58:42;95596.09;;;11.82;80.78
77207;BME280;66190;50.708;7.906;2023-03-30T08:01:08;95596.69;;;11.84;80.29
77207;BME280;66190;50.708;7.906;2023-03-30T08:03:33;95594.25;;;11.94;80.45
77207;BME280;66190;50.708;7.906;2023-03-30T08:06:01;95584.16;;;12.01;79.88
77207;BME280;66190;50.708;7.906;2023-03-30T08:08:31;95590.75;;;12.05;79.88
77207;BME280;66190;50.708;7.906;2023-03-30T08:10:57;95590.88;;;12.10;79.74
77207;BME280;66190;50.708;7.906;2023-03-30T08:13:22;95594.41;;;12.11;79.48
77207;BME280;66190;50.708;7.906;2023-03-30T08:15:48;95590.41;;;12.13;79.33
77207;BME280;66190;50.708;7.906;2023-03-30T08:18:14;95602.13;;;12.19;79.32
77207;BME280;66190;50.708;7.906;2023-03-30T08:20:41;95600.03;;;12.21;78.88
77207;BME280;66190;50.708;7.906;2023-03-30T08:23:10;95595.78;;;12.25;78.62
77207;BME280;66190;50.708;7.906;2023-03-30T08:25:36;95595.34;;;12.28;78.27
77207;BME280;66190;50.708;7.906;2023-03-30T08:28:02;95595.94;;;12.30;77.93
77207;BME280;66190;50.708;7.906;2023-03-30T08:30:29;95584.09;;;12.31;77.64
77207;BME280;66190;50.708;7.906;2023-03-30T08:32:55;95598.50;;;12.36;77.86
77207;BME280;66190;50.708;7.906;2023-03-30T08:35:21;95596.41;;;12.38;77.66
77207;BME280;66190;50.708;7.906;2023-03-30T08:37:47;95595.34;;;12.39;77.83
77207;BME280;66190;50.708;7.906;2023-03-30T08:40:13;95599.69;;;12.40;77.33
77207;BME280;66190;50.708;7.906;2023-03-30T08:43:16;95598.03;;;12.39;76.80
77207;BME280;66190;50.708;7.906;2023-03-30T08:45:36;95598.28;;;12.38;76.57
77207;BME280;66190;50.708;7.906;2023-03-30T08:48:05;95610.25;;;12.42;76.13
77207;BME280;66190;50.708;7.906;2023-03-30T08:50:34;95600.00;;;12.44;75.07
77207;BME280;66190;50.708;7.906;2023-03-30T08:53:00;95591.72;;;12.45;75.13
77207;BME280;66190;50.708;7.906;2023-03-30T08:55:35;95603.06;;;12.47;75.00
77207;BME280;66190;50.708;7.906;2023-03-30T09:03:39;95603.78;;;12.54;75.28
77207;BME280;66190;50.708;7.906;2023-03-30T09:06:51;95605.06;;;12.52;75.20
77207;BME280;66190;50.708;7.906;2023-03-30T09:09:23;95598.50;;;12.60;75.83
77207;BME280;66190;50.708;7.906;2023-03-30T09:12:04;95608.00;;;12.62;75.65
77207;BME280;66190;50.708;7.906;2023-03-30T09:14:32;95606.72;;;12.65;76.23
77207;BME280;66190;50.708;7.906;2023-03-30T09:17:06;95605.66;;;12.54;75.79
77207;BME280;66190;50.708;7.906;2023-03-30T09:20:01;95605.22;;;12.45;76.53
77207;BME280;66190;50.708;7.906;2023-03-30T09:22:35;95602.84;;;12.49;77.12
77207;BME280;66190;50.708;7.906;2023-03-30T09:25:10;95602.63;;;12.50;77.73
77207;BME280;66190;50.708;7.906;2023-03-30T09:30:19;95596.25;;;12.56;77.16
77207;BME280;66190;50.708;7.906;2023-03-30T09:32:58;95595.56;;;12.61;77.29
77207;BME280;66190;50.708;7.906;2023-03-30T09:35:31;95579.97;;;12.63;76.36
77207;BME280;66190;50.708;7.906;2023-03-30T09:37:57;95591.91;;;12.79;75.18
77207;BME280;66190;50.708;7.906;2023-03-30T09:40:36;95586.09;;;12.98;73.66
77207;BME280;66190;50.708;7.906;2023-03-30T09:46:06;95565.94;;;13.40;72.92
77207;BME280;66190;50.708;7.906;2023-03-30T09:51:25;95572.44;;;13.28;71.87
77207;BME280;66190;50.708;7.906;2023-03-30T09:54:02;95574.00;;;13.24;71.90
77207;BME280;66190;50.708;7.906;2023-03-30T10:01:48;95581.44;;;13.05;71.91
77207;BME280;66190;50.708;7.906;2023-03-30T10:04:14;95576.28;;;13.04;72.54
77207;BME280;66190;50.708;7.906;2023-03-30T10:06:45;95580.59;;;13.16;72.65
77207;BME280;66190;50.708;7.906;2023-03-30T10:09:11;95568.13;;;13.15;72.33
77207;BME280;66190;50.708;7.906;2023-03-30T10:11:42;95594.34;;;13.15;72.01
77207;BME280;66190;50.708;7.906;2023-03-30T10:14:20;95567.03;;;13.28;70.18
77207;BME280;66190;50.708;7.906;2023-03-30T10:16:47;95587.72;;;13.22;69.81
77207;BME280;66190;50.708;7.906;2023-03-30T10:19:18;95608.28;;;13.00;72.06
77207;BME280;66190;50.708;7.906;2023-03-30T10:21:45;95624.31;;;12.79;73.35
77207;BME280;66190;50.708;7.906;2023-03-30T10:26:41;95598.50;;;12.48;74.88
77207;BME280;66190;50.708;7.906;2023-03-30T10:29:12;95600.97;;;12.38;77.42
77207;BME280;66190;50.708;7.906;2023-03-30T10:31:42;95604.03;;;12.30;78.31
77207;BME280;66190;50.708;7.906;2023-03-30T10:34:33;95624.31;;;12.21;79.70
77207;BME280;66190;50.708;7.906;2023-03-30T10:36:59;95614.41;;;12.03;79.66
77207;BME280;66190;50.708;7.906;2023-03-30T10:39:29;95623.03;;;11.82;80.19
77207;BME280;66190;50.708;7.906;2023-03-30T10:41:58;95626.94;;;11.57;81.75
77207;BME280;66190;50.708;7.906;2023-03-30T10:44:39;95625.25;;;11.56;82.86
77207;BME280;66190;50.708;7.906;2023-03-30T10:55:06;95749.97;;;9.66;80.94
77207;BME280;66190;50.708;7.906;2023-03-30T10:58:06;95760.94;;;8.94;82.63
77207;BME280;66190;50.708;7.906;2023-03-30T11:03:31;95757.06;;;8.51;86.15
77207;BME280;66190;50.708;7.906;2023-03-30T11:06:21;95763.06;;;8.53;87.29
77207;BME280;66190;50.708;7.906;2023-03-30T11:08:50;95762.19;;;8.65;87.90
77207;BME280;66190;50.708;7.906;2023-03-30T11:11:20;95758.31;;;8.61;87.18
77207;BME280;66190;50.708;7.906;2023-03-30T11:14:01;95756.84;;;8.65;87.50
77207;BME280;66190;50.708;7.906;2023-03-30T11:16:54;95750.66;;;8.71;87.11
77207;BME280;66190;50.708;7.906;2023-03-30T11:19:29;95739.69;;;8.79;87.11
77207;BME280;66190;50.708;7.906;2023-03-30T11:22:04;95757.88;;;8.71;86.42
77207;BME280;66190;50.708;7.906;2023-03-30T11:24:33;95750.03;;;8.82;87.30
77207;BME280;66190;50.708;7.906;2023-03-30T11:27:08;95758.47;;;8.86;87.33
77207;BME280;66190;50.708;7.906;2023-03-30T11:29:47;95768.00;;;8.75;86.29
77207;BME280;66190;50.708;7.906;2023-03-30T11:32:23;95764.06;;;8.71;86.11
77207;BME280;66190;50.708;7.906;2023-03-30T11:35:18;95762.44;;;8.70;86.83
77207;BME280;66190;50.708;7.906;2023-03-30T11:37:54;95767.16;;;8.68;86.06
77207;BME280;66190;50.708;7.906;2023-03-30T11:40:24;95763.44;;;8.76;86.11
77207;BME280;66190;50.708;7.906;2023-03-30T11:42:54;95758.06;;;8.76;86.82
77207;BME280;66190;50.708;7.906;2023-03-30T11:45:41;95765.69;;;8.92;87.13
77207;BME280;66190;50.708;7.906;2023-03-30T11:56:37;95773.69;;;9.18;86.17
77207;BME280;66190;50.708;7.906;2023-03-30T11:59:18;95777.16;;;9.25;86.60
77207;BME280;66190;50.708;7.906;2023-03-30T12:04:48;95786.81;;;9.46;86.18
77207;BME280;66190;50.708;7.906;2023-03-30T12:09:54;95784.75;;;9.41;86.28
77207;BME280;66190;50.708;7.906;2023-03-30T12:12:35;95785.81;;;9.34;87.08
77207;BME280;66190;50.708;7.906;2023-03-30T12:18:18;95770.75;;;9.26;87.39
77207;BME280;66190;50.708;7.906;2023-03-30T12:21:12;95762.94;;;9.18;86.96
77207;BME280;66190;50.708;7.906;2023-03-30T12:23:47;95768.94;;;9.13;87.09
77207;BME280;66190;50.708;7.906;2023-03-30T12:26:27;95764.38;;;9.21;87.72
77207;BME280;66190;50.708;7.906;2023-03-30T12:28:57;95752.81;;;9.20;87.72
77207;BME280;66190;50.708;7.906;2023-03-30T12:31:46;95747.44;;;9.20;86.97
77207;BME280;66190;50.708;7.906;2023-03-30T12:34:12;95761.69;;;9.27;86.62
77207;BME280;66190;50.708;7.906;2023-03-30T12:36:39;95759.22;;;9.26;87.01
77207;BME280;66190;50.708;7.906;2023-03-30T12:39:42;95764.34;;;9.34;87.05
77207;BME280;66190;50.708;7.906;2023-03-30T12:42:21;95767.84;;;9.34;86.68
77207;BME280;66190;50.708;7.906;2023-03-30T12:50:34;95765.00;;;9.73;85.64
77207;BME280;66190;50.708;7.906;2023-03-30T12:53:29;95761.03;;;9.82;84.80
77207;BME280;66190;50.708;7.906;2023-03-30T12:56:05;95754.09;;;9.99;84.45
77207;BME280;66190;50.708;7.906;2023-03-30T12:58:50;95737.56;;;10.02;82.68
77207;BME280;66190;50.708;7.906;2023-03-30T13:04:20;95741.41;;;10.19;81.50
77207;BME280;66190;50.708;7.906;2023-03-30T13:06:57;95719.91;;;10.19;80.94
77207;BME280;66190;50.708;7.906;2023-03-30T13:24:44;95711.84;;;10.87;76.03
77207;BME280;66190;50.708;7.906;2023-03-30T13:29:41;95704.63;;;11.23;76.99
77207;BME280;66190;50.708;7.906;2023-03-30T13:35:00;95697.91;;;11.80;74.10
77207;BME280;66190;50.708;7.906;2023-03-30T13:45:57;95676.50;;;12.26;73.23
77207;BME280;66190;50.708;7.906;2023-03-30T13:50:56;95688.13;;;12.62;69.84
77207;BME280;66190;50.708;7.906;2023-03-30T13:53:25;95677.81;;;12.82;69.69
77207;BME280;66190;50.708;7.906;2023-03-30T13:55:52;95684.72;;;12.89;70.29
77207;BME280;66190;50.708;7.906;2023-03-30T13:58:28;95684.63;;;12.96;66.74
77207;BME280;66190;50.708;7.906;2023-03-30T14:00:59;95689.19;;;12.95;66.05
77207;BME280;66190;50.708;7.906;2023-03-30T14:05:58;95703.03;;;13.33;64.87
77207;BME280;66190;50.708;7.906;2023-03-30T14:08:33;95697.53;;;13.68;63.41
77207;BME280;66190;50.708;7.906;2023-03-30T14:11:01;95690.69;;;13.77;63.26
77207;BME280;66190;50.708;7.906;2023-03-30T14:13:28;95692.38;;;13.66;64.16
77207;BME280;66190;50.708;7.906;2023-03-30T14:15:54;95695.53;;;13.35;63.48
77207;BME280;66190;50.708;7.906;2023-03-30T14:18:22;95691.81;;;13.13;64.26
77207;BME280;66190;50.708;7.906;2023-03-30T14:23:22;95689.66;;;12.57;66.39
77207;BME280;66190;50.708;7.906;2023-03-30T14:26:02;95696.56;;;12.53;68.40
77207;BME280;66190;50.708;7.906;2023-03-30T14:28:30;95703.22;;;12.28;70.96
77207;BME280;66190;50.708;7.906;2023-03-30T14:31:01;95696.22;;;11.97;72.33
77207;BME280;66190;50.708;7.906;2023-03-30T14:33:29;95700.00;;;11.78;75.14
77207;BME280;66190;50.708;7.906;2023-03-30T14:35:58;95699.13;;;11.66;75.23
77207;BME280;66190;50.708;7.906;2023-03-30T14:38:42;95716.94;;;11.49;76.06
77207;BME280;66190;50.708;7.906;2023-03-30T14:41:33;95762.97;;;11.11;79.18
77207;BME280;66190;50.708;7.906;2023-03-30T14:44:04;95730.16;;;10.29;80.43
77207;BME280;66190;50.708;7.906;2023-03-30T14:46:51;95749.72;;;10.11;84.20
77207;BME280;66190;50.708;7.906;2023-03-30T14:49:20;95743.53;;;10.11;82.76
77207;BME280;66190;50.708;7.906;2023-03-30T14:51:49;95763.38;;;10.03;81.98
77207;BME280;66190;50.708;7.906;2023-03-30T14:54:19;95764.44;;;10.02;82.55
77207;BME280;66190;50.708;7.906;2023-03-30T14:56:52;95751.59;;;10.42;81.03
77207;BME280;66190;50.708;7.906;2023-03-30T14:59:22;95739.38;;;12.38;75.72
77207;BME280;66190;50.708;7.906;2023-03-30T15:01:48;95733.16;;;14.33;68.89
77207;BME280;66190;50.708;7.906;2023-03-30T15:04:14;95725.41;;;15.57;62.38
77207;BME280;66190;50.708;7.906;2023-03-30T15:06:41;95725.41;;;16.80;57.64
77207;BME280;66190;50.708;7.906;2023-03-30T15:09:19;95718.69;;;16.56;58.12
77207;BME280;66190;50.708;7.906;2023-03-30T15:11:47;95726.97;;;15.53;60.70
77207;BME280;66190;50.708;7.906;2023-03-30T15:14:18;95710.44;;;15.76;61.38
77207;BME280;66190;50.708;7.906;2023-03-30T15:16:46;95718.25;;;14.97;62.24
77207;BME280;66190;50.708;7.906;2023-03-30T15:21:50;95718.69;;;16.56;59.08
77207;BME280;66190;50.708;7.906;2023-03-30T15:24:22;95709.91;;;17.54;54.83
77207;BME280;66190;50.708;7.906;2023-03-30T15:26:50;95711.81;;;17.54;54.38
77207;BME280;66190;50.708;7.906;2023-03-30T15:29:19;95697.41;;;18.20;52.68
77207;BME280;66190;50.708;7.906;2023-03-30T15:31:44;95688.41;;;18.30;52.38